Time;durP1;ratioP1;P1;durP2;ratioP2;P2;SDS_P1;SDS_P2;PMS_P1;PMS_P2;Temp;Humidity;BMP_temperature;BMP_pressure;BME280_temperature;BME280_humidity;BME280_pressure;Samples;Min_cycle;Max_cycle;Signal;HPM_P1;HPM_P2
2022/11/19 00:01:10;;;;;;;11.18;8.82;;;1.30;99.90;;;;;;5056893;28;20059;-44
2022/11/19 00:03:37;;;;;;;9.13;7.35;;;1.30;99.90;;;;;;5056798;28;20546;-42
2022/11/19 00:06:06;;;;;;;12.23;9.18;;;1.30;99.90;;;;;;5054428;28;20047;-45
2022/11/19 00:08:32;;;;;;;12.07;8.93;;;1.30;99.90;;;;;;5054830;28;20487;-44
2022/11/19 00:14:04;;;;;;;11.55;8.65;;;1.30;99.90;;;;;;5047415;28;20057;-42
2022/11/19 00:16:30;;;;;;;9.35;7.10;;;1.20;99.90;;;;;;5055685;28;20037;-43
2022/11/19 00:18:55;;;;;;;9.85;6.90;;;1.20;99.90;;;;;;5055872;28;20155;-45
2022/11/19 00:21:21;;;;;;;10.05;7.35;;;1.20;99.90;;;;;;5052791;28;20437;-45
2022/11/19 00:23:46;;;;;;;8.88;7.40;;;1.20;99.90;;;;;;5056784;28;20386;-41
2022/11/19 00:26:13;;;;;;;9.35;7.18;;;1.20;99.90;;;;;;5055796;28;20351;-45
2022/11/19 00:28:40;;;;;;;8.43;7.07;;;1.20;99.90;;;;;;5055444;28;20040;-44
2022/11/19 00:31:08;;;;;;;9.50;6.95;;;1.20;99.90;;;;;;5056235;28;20048;-42
2022/11/19 00:33:35;;;;;;;7.72;6.55;;;1.20;99.90;;;;;;5055096;28;20148;-43
2022/11/19 00:36:03;;;;;;;9.13;7.45;;;1.20;99.90;;;;;;5055358;28;20049;-42
2022/11/19 00:38:29;;;;;;;8.77;7.13;;;1.20;99.90;;;;;;5056491;28;20486;-44
2022/11/19 00:40:55;;;;;;;7.35;6.35;;;1.20;99.90;;;;;;5052273;28;20127;-42
2022/11/19 00:46:05;;;;;;;8.88;6.65;;;1.20;99.90;;;;;;5056187;28;20051;-44
2022/11/19 00:48:31;;;;;;;7.45;6.05;;;1.20;99.90;;;;;;5055873;28;20068;-44
2022/11/19 00:50:57;;;;;;;7.93;6.43;;;1.20;99.90;;;;;;5056482;28;20044;-43
2022/11/19 00:53:23;;;;;;;7.15;6.18;;;1.20;99.90;;;;;;5054597;28;20047;-45
2022/11/19 00:55:48;;;;;;;8.77;5.93;;;1.20;99.90;;;;;;5056027;28;20501;-42
2022/11/19 00:58:14;;;;;;;9.07;5.85;;;1.20;99.90;;;;;;5055638;28;20048;-44
2022/11/19 01:00:39;;;;;;;7.20;5.80;;;1.20;99.90;;;;;;5055765;28;20041;-46
2022/11/19 01:03:06;;;;;;;5.80;4.95;;;1.20;99.90;;;;;;5055673;28;20203;-43
2022/11/19 01:05:31;;;;;;;7.28;5.72;;;1.20;99.90;;;;;;5055390;28;20499;-44
2022/11/19 01:07:57;;;;;;;6.80;5.57;;;1.20;99.90;;;;;;5055889;28;20075;-42
2022/11/19 01:10:23;;;;;;;10.00;5.35;;;1.20;99.90;;;;;;5054788;28;20172;-45
2022/11/19 01:15:33;;;;;;;6.80;5.13;;;1.20;99.90;;;;;;5055129;28;20059;-44
2022/11/19 01:17:59;;;;;;;6.32;4.88;;;1.20;99.90;;;;;;5055543;28;20049;-45
2022/11/19 01:20:25;;;;;;;5.82;4.82;;;1.20;99.90;;;;;;5055169;28;20407;-41
2022/11/19 01:22:50;;;;;;;6.28;4.93;;;1.20;99.90;;;;;;5051668;28;20838;-45
2022/11/19 01:25:16;;;;;;;5.47;4.78;;;1.20;99.90;;;;;;5055044;28;20040;-42
2022/11/19 01:27:42;;;;;;;5.68;4.20;;;1.20;99.90;;;;;;5055254;28;20098;-45
2022/11/19 01:30:08;;;;;;;5.47;4.20;;;1.20;99.90;;;;;;5054417;28;20072;-41
2022/11/19 01:32:33;;;;;;;5.63;4.20;;;1.20;99.90;;;;;;5054441;28;20040;-46
2022/11/19 01:34:59;;;;;;;5.68;3.92;;;1.20;99.90;;;;;;5052707;28;20061;-46
2022/11/19 01:37:26;;;;;;;5.18;3.80;;;1.10;99.90;;;;;;5054806;28;20047;-42
2022/11/19 01:39:51;;;;;;;5.38;4.30;;;1.10;99.90;;;;;;5054920;28;20040;-44
2022/11/19 01:45:25;;;;;;;5.70;4.10;;;1.10;99.90;;;;;;5054557;28;20455;-42
2022/11/19 01:48:11;;;;;;;6.28;4.65;;;1.10;99.90;;;;;;5055034;28;20048;-46
2022/11/19 01:50:50;;;;;;;5.82;3.80;;;1.10;99.90;;;;;;5053638;28;20546;-42
2022/11/19 01:53:18;;;;;;;6.22;4.28;;;1.00;99.90;;;;;;5054226;28;20152;-42
2022/11/19 01:55:45;;;;;;;6.18;4.57;;;1.00;99.90;;;;;;5053680;28;20101;-42
2022/11/19 01:58:16;;;;;;;7.25;4.57;;;0.90;99.90;;;;;;5044226;28;20057;-44
2022/11/19 02:00:42;;;;;;;6.55;4.50;;;1.00;99.90;;;;;;5040181;28;20036;-41
2022/11/19 02:03:10;;;;;;;6.90;5.05;;;0.90;99.90;;;;;;5054300;28;20113;-41
2022/11/19 02:05:36;;;;;;;5.82;4.45;;;0.90;99.90;;;;;;5053493;28;20047;-41
2022/11/19 02:08:06;;;;;;;6.32;4.57;;;0.80;99.90;;;;;;5054501;28;20451;-45
2022/11/19 02:11:08;;;;;;;5.78;3.90;;;0.80;99.90;;;;;;5053961;28;20115;-43
2022/11/19 02:13:46;;;;;;;6.32;4.43;;;0.70;99.90;;;;;;5031022;28;20136;-43
2022/11/19 02:16:31;;;;;;;5.95;4.55;;;0.70;99.90;;;;;;5030496;28;20048;-41
2022/11/19 02:19:07;;;;;;;7.55;5.13;;;0.60;99.90;;;;;;5031018;28;20136;-41
2022/11/19 02:21:58;;;;;;;6.63;4.68;;;0.50;99.90;;;;;;5033884;28;20039;-43
2022/11/19 02:24:51;;;;;;;6.75;5.25;;;0.50;99.90;;;;;;4955454;28;20377;-42
2022/11/19 02:27:56;;;;;;;5.25;4.45;;;0.40;99.90;;;;;;4956638;28;20123;-42
2022/11/19 02:30:22;;;;;;;7.85;5.32;;;0.30;99.90;;;;;;4971870;28;20420;-42
2022/11/19 02:33:13;;;;;;;6.78;4.93;;;0.30;99.90;;;;;;4971865;28;20085;-41
2022/11/19 02:35:48;;;;;;;7.68;5.55;;;0.20;99.90;;;;;;4971486;28;20133;-43
2022/11/19 02:38:40;;;;;;;6.82;5.32;;;0.20;99.90;;;;;;4972570;28;20084;-42
2022/11/19 02:41:35;;;;;;;6.57;5.13;;;0.20;99.90;;;;;;4967349;28;20039;-45
2022/11/19 02:47:19;;;;;;;7.72;5.38;;;0.10;99.90;;;;;;4952588;28;20098;-43
2022/11/19 02:49:45;;;;;;;6.50;4.57;;;0.10;99.90;;;;;;4959920;28;20054;-41
2022/11/19 02:52:14;;;;;;;5.97;5.00;;;0.10;99.90;;;;;;4995420;28;20065;-46
2022/11/19 02:54:40;;;;;;;7.65;5.18;;;0.10;99.90;;;;;;4991556;28;20307;-44
2022/11/19 02:57:08;;;;;;;7.93;4.93;;;0.10;99.90;;;;;;4995534;28;20054;-42
2022/11/19 03:05:20;;;;;;;7.47;5.53;;;-0.10;99.90;;;;;;5057997;28;20049;-41
2022/11/19 03:07:47;;;;;;;6.80;5.47;;;-0.10;99.90;;;;;;5058420;28;20164;-42
2022/11/19 03:10:14;;;;;;;6.30;4.32;;;-0.10;99.90;;;;;;5057108;28;20092;-41
2022/11/19 03:16:40;;;;;;;8.43;4.85;;;-0.10;99.90;;;;;;5057873;28;20044;-46
2022/11/19 03:18:54;;;;;;;7.15;4.90;;;-0.20;99.90;;;;;;5057379;28;20110;-40
2022/11/19 03:21:37;;;;;;;7.35;5.40;;;-0.20;99.90;;;;;;5053055;28;20041;-40
2022/11/19 03:24:19;;;;;;;6.13;4.93;;;-0.20;99.90;;;;;;5058117;28;20060;-43
2022/11/19 03:27:07;;;;;;;7.25;5.30;;;-0.30;99.90;;;;;;5057139;28;20667;-43
2022/11/19 03:29:40;;;;;;;6.07;4.93;;;-0.30;99.90;;;;;;5056825;28;20040;-41
2022/11/19 03:32:12;;;;;;;8.75;4.97;;;-0.30;99.90;;;;;;5057532;28;20040;-42
2022/11/19 03:34:39;;;;;;;6.07;4.63;;;-0.40;99.90;;;;;;5056521;28;20045;-44
2022/11/19 03:37:07;;;;;;;7.20;5.43;;;-0.40;99.90;;;;;;5057244;28;20052;-46
2022/11/19 03:39:36;;;;;;;7.25;4.95;;;-0.40;99.90;;;;;;5056479;28;20048;-42
2022/11/19 03:42:05;;;;;;;6.05;4.70;;;-0.50;99.90;;;;;;5054329;28;20494;-43
2022/11/19 03:44:45;;;;;;;5.85;4.85;;;-0.50;99.90;;;;;;5057043;28;20131;-42
2022/11/19 03:47:19;;;;;;;6.20;4.63;;;-0.50;99.90;;;;;;5057613;28;20278;-43
2022/11/19 03:49:51;;;;;;;7.60;4.82;;;-0.60;99.90;;;;;;5056974;28;20041;-43
2022/11/19 03:52:19;;;;;;;6.95;4.88;;;-0.60;99.90;;;;;;5057126;28;20131;-44
2022/11/19 03:54:45;;;;;;;7.40;4.78;;;-0.60;99.90;;;;;;5056758;28;20094;-41
2022/11/19 03:57:15;;;;;;;8.13;5.13;;;-0.60;99.90;;;;;;5057507;28;20812;-44
2022/11/19 03:59:41;;;;;;;7.05;5.47;;;-0.60;99.90;;;;;;5056404;28;21042;-42
2022/11/19 04:02:09;;;;;;;7.43;5.07;;;-0.70;99.90;;;;;;5055297;28;20036;-44
2022/11/19 04:04:36;;;;;;;7.32;4.80;;;-0.70;99.90;;;;;;5056523;28;20343;-43
2022/11/19 04:07:11;;;;;;;6.82;4.82;;;-0.70;99.90;;;;;;5056301;28;20119;-43
2022/11/19 04:09:38;;;;;;;6.72;5.15;;;-0.70;99.90;;;;;;5056300;28;20044;-47
2022/11/19 04:12:05;;;;;;;7.38;5.82;;;-0.80;99.90;;;;;;5056433;28;20376;-42
2022/11/19 04:14:31;;;;;;;5.57;3.97;;;-0.80;99.90;;;;;;5054496;28;20044;-43
2022/11/19 04:16:57;;;;;;;8.13;5.43;;;-0.80;99.90;;;;;;5055687;28;20103;-44
2022/11/19 04:19:22;;;;;;;7.60;5.63;;;-0.80;99.90;;;;;;5056804;28;20185;-43
2022/11/19 04:21:48;;;;;;;7.07;4.97;;;-0.80;99.90;;;;;;5056099;28;20119;-41
2022/11/19 04:24:15;;;;;;;8.18;5.28;;;-0.90;99.90;;;;;;5056008;28;20083;-43
2022/11/19 04:26:40;;;;;;;6.63;4.82;;;-0.90;99.90;;;;;;5056118;28;20067;-41
2022/11/19 04:29:06;;;;;;;6.75;4.90;;;-0.90;99.90;;;;;;5056595;28;20529;-45
2022/11/19 04:31:32;;;;;;;8.50;4.60;;;-0.90;99.90;;;;;;5056735;28;20056;-42
2022/11/19 04:33:58;;;;;;;6.50;5.15;;;-0.90;99.90;;;;;;5057061;28;20511;-41
2022/11/19 04:36:23;;;;;;;7.43;5.18;;;-1.00;99.90;;;;;;5055891;28;20454;-46
2022/11/19 04:38:49;;;;;;;6.63;4.88;;;-1.00;99.90;;;;;;5056283;28;20159;-41
2022/11/19 04:41:14;;;;;;;7.05;4.88;;;-1.00;99.90;;;;;;5052314;28;20045;-42
2022/11/19 04:43:40;;;;;;;7.70;5.25;;;-1.00;99.90;;;;;;5056330;28;20446;-40
2022/11/19 04:46:06;;;;;;;6.45;5.07;;;-1.00;99.90;;;;;;5055073;28;20044;-40
2022/11/19 04:48:31;;;;;;;8.10;4.97;;;-1.10;99.90;;;;;;5055658;28;20486;-45
2022/11/19 04:50:57;;;;;;;7.80;5.45;;;-1.00;99.90;;;;;;5056076;28;20479;-42
2022/11/19 04:53:22;;;;;;;8.20;5.63;;;-1.10;99.90;;;;;;5055789;28;20548;-43
2022/11/19 04:55:48;;;;;;;6.50;4.90;;;-1.10;99.90;;;;;;5042615;28;20102;-43
2022/11/19 04:58:14;;;;;;;6.32;5.35;;;-1.10;99.90;;;;;;5042572;28;20414;-43
2022/11/19 05:00:40;;;;;;;7.18;5.20;;;-1.10;99.90;;;;;;5045872;28;20051;-42
2022/11/19 05:03:05;;;;;;;8.00;5.15;;;-1.20;99.90;;;;;;5055518;28;20145;-43
2022/11/19 05:05:31;;;;;;;7.97;5.70;;;-1.20;99.90;;;;;;5055229;28;20048;-48
2022/11/19 05:07:57;;;;;;;7.53;5.30;;;-1.20;99.90;;;;;;5055095;28;20436;-42
2022/11/19 05:10:23;;;;;;;6.88;4.90;;;-1.20;99.90;;;;;;5055043;28;20044;-44
2022/11/19 05:12:48;;;;;;;7.35;5.22;;;-1.30;99.90;;;;;;5055692;28;20157;-41
2022/11/19 05:15:14;;;;;;;7.25;4.82;;;-1.30;99.90;;;;;;5055256;28;20049;-45
2022/11/19 05:17:39;;;;;;;7.88;4.60;;;-1.30;99.90;;;;;;5055757;28;20089;-41
2022/11/19 05:20:06;;;;;;;7.78;5.30;;;-1.30;99.90;;;;;;5054875;28;20111;-42
2022/11/19 05:22:31;;;;;;;6.70;4.80;;;-1.30;99.90;;;;;;5051497;28;20553;-45
2022/11/19 05:24:57;;;;;;;7.00;5.32;;;-1.30;99.90;;;;;;5053712;28;20045;-41
2022/11/19 05:27:23;;;;;;;6.95;5.20;;;-1.30;99.90;;;;;;5055078;28;20052;-44
2022/11/19 05:29:49;;;;;;;11.30;5.53;;;-1.30;99.90;;;;;;5054597;28;20036;-40
2022/11/19 05:32:14;;;;;;;6.43;5.00;;;-1.40;99.90;;;;;;5054775;28;20097;-44
2022/11/19 05:34:40;;;;;;;6.78;4.47;;;-1.30;99.90;;;;;;5054198;28;20746;-41
2022/11/19 05:37:06;;;;;;;7.22;5.63;;;-1.40;99.90;;;;;;5054520;28;20048;-47
2022/11/19 05:39:31;;;;;;;6.30;4.78;;;-1.40;99.90;;;;;;5054557;28;20075;-42
2022/11/19 05:41:57;;;;;;;7.13;5.15;;;-1.40;99.90;;;;;;5051497;28;20075;-43
2022/11/19 05:44:23;;;;;;;5.72;4.75;;;-1.40;99.90;;;;;;5053596;28;20048;-43
2022/11/19 05:46:48;;;;;;;6.68;5.00;;;-1.40;99.90;;;;;;5055527;28;20103;-40
2022/11/19 05:49:14;;;;;;;7.82;5.40;;;-1.50;99.90;;;;;;5054176;28;20186;-43
2022/11/19 05:51:39;;;;;;;8.65;5.57;;;-1.50;99.90;;;;;;5055196;28;20052;-40
2022/11/19 05:54:05;;;;;;;7.43;5.03;;;-1.50;99.90;;;;;;5054658;28;20043;-42
2022/11/19 05:56:31;;;;;;;6.15;4.95;;;-1.50;99.90;;;;;;5053977;28;20151;-41
2022/11/19 05:58:56;;;;;;;8.25;5.55;;;-1.50;99.90;;;;;;5052367;28;20231;-41
2022/11/19 06:01:26;;;;;;;7.07;5.25;;;-1.50;99.90;;;;;;5074389;28;20463;-42
2022/11/19 06:03:52;;;;;;;7.20;5.65;;;-1.50;99.90;;;;;;5053411;28;20574;-42
2022/11/19 06:06:18;;;;;;;7.60;5.07;;;-1.50;99.90;;;;;;5054135;28;20097;-41
2022/11/19 06:08:43;;;;;;;6.82;5.68;;;-1.50;99.90;;;;;;5054096;28;20044;-41
2022/11/19 06:11:46;;;;;;;8.13;5.28;;;-1.50;99.90;;;;;;5087068;28;20443;-41
2022/11/19 06:13:55;;;;;;;7.22;5.72;;;-1.50;99.90;;;;;;5054779;28;20079;-41
2022/11/19 06:16:21;;;;;;;7.50;5.82;;;-1.50;99.90;;;;;;5054135;28;20044;-44
2022/11/19 06:18:46;;;;;;;7.25;5.75;;;-1.50;99.90;;;;;;5053937;28;20497;-44
2022/11/19 06:21:12;;;;;;;6.63;5.00;;;-1.50;99.90;;;;;;5052151;28;20514;-40
2022/11/19 06:23:37;;;;;;;7.53;5.35;;;-1.50;99.90;;;;;;5052512;28;20139;-42
2022/11/19 06:26:03;;;;;;;7.65;5.88;;;-1.60;99.90;;;;;;5053008;28;20127;-41
2022/11/19 06:28:29;;;;;;;7.75;5.20;;;-1.60;99.90;;;;;;5053370;28;20055;-42
2022/11/19 06:30:54;;;;;;;6.63;5.28;;;-1.60;99.90;;;;;;5069250;28;20102;-41
2022/11/19 06:33:20;;;;;;;7.43;5.70;;;-1.70;99.90;;;;;;5041739;28;20041;-41
2022/11/19 06:35:48;;;;;;;8.05;6.15;;;-1.70;99.90;;;;;;5048156;28;20434;-40
2022/11/19 06:38:13;;;;;;;7.72;5.47;;;-1.70;99.90;;;;;;5053814;28;20045;-41
2022/11/19 06:40:39;;;;;;;10.48;6.50;;;-1.70;99.90;;;;;;5049416;28;20475;-41
2022/11/19 06:43:04;;;;;;;8.30;5.85;;;-1.70;99.90;;;;;;5054211;28;20124;-41
2022/11/19 06:45:30;;;;;;;7.95;5.53;;;-1.70;99.90;;;;;;5052014;28;20075;-42
2022/11/19 06:47:56;;;;;;;9.93;6.88;;;-1.70;99.90;;;;;;5053926;28;20048;-43
2022/11/19 06:50:21;;;;;;;9.38;5.93;;;-1.70;99.90;;;;;;5052318;28;20075;-42
2022/11/19 06:52:47;;;;;;;8.07;6.18;;;-1.70;99.90;;;;;;5054106;28;20423;-40
2022/11/19 06:55:13;;;;;;;7.50;5.80;;;-1.70;99.90;;;;;;5051418;28;20101;-42
2022/11/19 06:57:39;;;;;;;7.80;5.93;;;-1.70;99.90;;;;;;5054299;28;20063;-41
2022/11/19 07:00:05;;;;;;;8.98;6.70;;;-1.70;99.90;;;;;;5053034;28;20595;-41
2022/11/19 07:02:31;;;;;;;9.30;6.57;;;-1.70;99.90;;;;;;5053671;28;20383;-43
2022/11/19 07:04:57;;;;;;;8.82;6.63;;;-1.80;99.90;;;;;;5053117;28;20049;-41
2022/11/19 07:07:22;;;;;;;9.38;6.68;;;-1.80;99.90;;;;;;5053864;28;20538;-42
2022/11/19 07:09:48;;;;;;;9.57;6.88;;;-1.80;99.90;;;;;;5051341;28;20051;-42
2022/11/19 07:12:14;;;;;;;8.48;6.45;;;-1.80;99.90;;;;;;5053706;28;20556;-41
2022/11/19 07:14:39;;;;;;;7.90;6.18;;;-1.80;99.90;;;;;;5052620;28;20504;-42
2022/11/19 07:17:05;;;;;;;8.80;6.75;;;-1.80;99.90;;;;;;5053560;28;20396;-42
2022/11/19 07:19:31;;;;;;;9.73;6.88;;;-1.80;99.90;;;;;;5052699;28;20726;-40
2022/11/19 07:21:57;;;;;;;8.77;6.70;;;-1.80;99.90;;;;;;5050512;28;20072;-41
2022/11/19 07:24:22;;;;;;;11.30;7.32;;;-1.80;99.90;;;;;;5053253;28;20058;-42
2022/11/19 07:26:48;;;;;;;10.13;7.07;;;-1.80;99.90;;;;;;5053585;28;20048;-40
2022/11/19 07:29:14;;;;;;;8.13;6.68;;;-1.80;99.90;;;;;;5052999;28;20486;-41
2022/11/19 07:31:40;;;;;;;8.05;6.22;;;-1.80;99.90;;;;;;5053764;28;20036;-43
2022/11/19 07:34:08;;;;;;;7.82;6.90;;;-1.80;99.90;;;;;;5052920;28;20094;-44
2022/11/19 07:36:34;;;;;;;8.88;7.28;;;-1.80;99.90;;;;;;5053448;28;20053;-42
2022/11/19 07:39:00;;;;;;;11.35;7.97;;;-1.80;99.90;;;;;;5052766;28;20045;-42
2022/11/19 07:44:09;;;;;;;9.27;7.22;;;-1.70;99.90;;;;;;5051952;28;20051;-42
2022/11/19 07:46:35;;;;;;;10.63;7.40;;;-1.70;99.90;;;;;;5051618;28;20328;-43
2022/11/19 07:49:01;;;;;;;8.88;7.15;;;-1.70;99.90;;;;;;5053571;28;20496;-41
2022/11/19 07:51:27;;;;;;;9.70;7.25;;;-1.70;99.90;;;;;;5056693;28;20036;-43
2022/11/19 07:53:54;;;;;;;10.55;7.13;;;-1.60;99.90;;;;;;5056198;28;20371;-41
2022/11/19 07:56:20;;;;;;;11.13;8.30;;;-1.60;99.90;;;;;;5055515;28;20040;-40
2022/11/19 07:58:46;;;;;;;8.98;6.40;;;-1.60;99.90;;;;;;5054034;28;20113;-42
2022/11/19 08:01:17;;;;;;;11.70;7.97;;;-1.60;99.90;;;;;;5056096;28;20278;-41
2022/11/19 08:03:45;;;;;;;11.35;7.57;;;-1.60;99.90;;;;;;5056181;28;20436;-41
2022/11/19 08:06:12;;;;;;;13.23;7.53;;;-1.50;99.90;;;;;;5055273;28;20584;-42
2022/11/19 08:08:37;;;;;;;8.20;6.72;;;-1.50;99.90;;;;;;5054710;28;20040;-41
2022/11/19 08:11:05;;;;;;;8.88;7.43;;;-1.50;99.90;;;;;;5055165;28;20430;-40
2022/11/19 08:13:31;;;;;;;10.05;7.05;;;-1.50;99.90;;;;;;5055019;28;20068;-42
2022/11/19 08:16:05;;;;;;;8.95;7.35;;;-1.40;99.90;;;;;;5054801;28;20057;-41
2022/11/19 08:18:31;;;;;;;10.68;8.07;;;-1.40;99.90;;;;;;5054805;28;20125;-40
2022/11/19 08:21:06;;;;;;;10.40;7.70;;;-1.40;99.90;;;;;;5053654;28;20040;-44
2022/11/19 08:23:32;;;;;;;9.70;7.82;;;-1.40;99.90;;;;;;5055637;28;20041;-41
2022/11/19 08:25:59;;;;;;;9.40;7.10;;;-1.40;99.90;;;;;;5054434;28;20048;-41
2022/11/19 08:28:25;;;;;;;10.20;8.57;;;-1.30;99.90;;;;;;5054076;28;20106;-45
2022/11/19 08:30:50;;;;;;;9.60;7.07;;;-1.30;99.90;;;;;;5056217;28;20045;-41
2022/11/19 08:33:16;;;;;;;9.25;7.22;;;-1.30;99.90;;;;;;5037762;28;20044;-41
2022/11/19 08:35:42;;;;;;;9.32;7.82;;;-1.30;99.90;;;;;;5053826;28;20045;-41
2022/11/19 08:38:09;;;;;;;11.10;8.10;;;-1.20;99.90;;;;;;5054702;28;20048;-43
2022/11/19 08:40:34;;;;;;;9.95;7.57;;;-1.20;99.90;;;;;;5052614;28;20422;-42
2022/11/19 08:43:00;;;;;;;10.95;7.30;;;-1.10;99.90;;;;;;5055974;28;20041;-42
2022/11/19 08:45:37;;;;;;;11.02;8.38;;;-1.10;99.90;;;;;;5055567;28;20487;-41
2022/11/19 08:48:06;;;;;;;10.18;7.68;;;-1.10;99.90;;;;;;5054727;28;20355;-40
2022/11/19 08:50:32;;;;;;;10.82;8.35;;;-1.00;99.90;;;;;;5055921;28;20048;-44
2022/11/19 08:53:03;;;;;;;9.93;8.38;;;-1.00;99.90;;;;;;5055169;28;20044;-41
2022/11/19 08:55:30;;;;;;;9.55;8.00;;;-1.00;99.90;;;;;;5037147;28;20552;-41
2022/11/19 08:58:04;;;;;;;10.07;7.85;;;-0.90;99.90;;;;;;5052967;28;20051;-41
2022/11/19 09:00:30;;;;;;;10.00;7.88;;;-0.90;99.90;;;;;;5052884;28;20589;-42
2022/11/19 09:02:56;;;;;;;10.77;8.18;;;-0.80;99.90;;;;;;5055521;28;20041;-42
2022/11/19 09:05:22;;;;;;;9.60;7.20;;;-0.80;99.90;;;;;;5054475;28;20044;-43
2022/11/19 09:07:48;;;;;;;11.27;8.65;;;-0.80;99.90;;;;;;5054574;28;20051;-41
2022/11/19 09:10:14;;;;;;;10.35;7.30;;;-0.70;99.90;;;;;;5054663;28;20036;-42
2022/11/19 09:12:39;;;;;;;11.60;7.57;;;-0.70;99.90;;;;;;5054371;28;20055;-42
2022/11/19 09:15:07;;;;;;;11.43;8.82;;;-0.70;99.90;;;;;;5050761;28;20032;-42
2022/11/19 09:17:34;;;;;;;11.45;8.70;;;-0.60;99.90;;;;;;5054359;28;20193;-41
2022/11/19 09:20:00;;;;;;;10.25;7.90;;;-0.60;99.90;;;;;;5055565;28;20048;-43
2022/11/19 09:22:25;;;;;;;9.95;7.20;;;-0.50;99.90;;;;;;5050027;28;20036;-41
2022/11/19 09:24:51;;;;;;;11.70;8.15;;;-0.40;99.90;;;;;;5052160;28;20055;-42
2022/11/19 09:27:17;;;;;;;9.13;7.65;;;-0.40;99.90;;;;;;5054914;28;20482;-42
2022/11/19 09:29:43;;;;;;;9.85;7.60;;;-0.40;99.90;;;;;;5052768;28;20056;-40
2022/11/19 09:32:08;;;;;;;9.75;7.88;;;-0.30;99.90;;;;;;5054833;28;20517;-41
2022/11/19 09:34:36;;;;;;;8.90;7.45;;;-0.30;99.90;;;;;;5052323;28;20148;-41
2022/11/19 09:37:02;;;;;;;8.20;6.95;;;-0.20;99.90;;;;;;5053979;28;20044;-41
2022/11/19 09:39:28;;;;;;;9.20;7.30;;;-0.10;99.90;;;;;;5054301;28;20051;-40
2022/11/19 09:42:26;;;;;;;9.75;7.93;;;-0.10;99.90;;;;;;5051224;28;20049;-45
2022/11/19 09:45:15;;;;;;;9.27;7.55;;;0.00;99.90;;;;;;5041804;28;20505;-43
2022/11/19 09:48:09;;;;;;;9.30;7.03;;;0.00;99.90;;;;;;5053373;28;20114;-44
2022/11/19 09:50:53;;;;;;;8.05;6.30;;;0.10;99.90;;;;;;5053877;28;20052;-46
2022/11/19 09:53:21;;;;;;;10.60;7.70;;;0.10;99.90;;;;;;5055254;28;20123;-40
2022/11/19 09:55:49;;;;;;;10.93;8.07;;;0.20;99.90;;;;;;5054448;28;20509;-43
2022/11/19 09:58:37;;;;;;;11.63;7.65;;;0.20;99.90;;;;;;5053956;28;20103;-42
2022/11/19 10:01:03;;;;;;;8.77;7.15;;;0.30;99.90;;;;;;5055008;28;20044;-43
2022/11/19 10:03:30;;;;;;;8.98;7.18;;;0.30;99.90;;;;;;5054718;28;20055;-43
2022/11/19 10:06:05;;;;;;;8.43;6.68;;;0.40;99.90;;;;;;5054753;28;20948;-43
2022/11/19 10:08:58;;;;;;;9.57;6.30;;;0.40;99.90;;;;;;5054832;28;20052;-43
2022/11/19 10:11:37;;;;;;;9.88;7.95;;;0.50;99.90;;;;;;5054823;28;20049;-40
2022/11/19 10:14:17;;;;;;;9.25;6.70;;;0.50;99.90;;;;;;5054438;28;20055;-41
2022/11/19 10:16:50;;;;;;;9.23;6.93;;;0.50;99.90;;;;;;5053893;28;20537;-41
2022/11/19 10:19:45;;;;;;;8.48;6.40;;;0.60;99.90;;;;;;5054233;28;20101;-42
2022/11/19 10:22:27;;;;;;;9.18;7.95;;;0.60;99.90;;;;;;5050518;28;20060;-43
2022/11/19 10:25:17;;;;;;;8.82;6.85;;;0.60;99.90;;;;;;5053424;28;20041;-43
2022/11/19 10:28:09;;;;;;;7.15;6.03;;;0.70;99.90;;;;;;5053187;28;20049;-40
2022/11/19 10:30:37;;;;;;;8.10;6.25;;;0.70;99.90;;;;;;5052840;28;20056;-46
2022/11/19 10:33:12;;;;;;;8.45;6.43;;;0.80;99.90;;;;;;5052301;28;20048;-42
2022/11/19 10:36:08;;;;;;;9.88;6.55;;;0.80;99.90;;;;;;5053590;28;20048;-43
2022/11/19 10:38:52;;;;;;;9.63;6.22;;;0.80;99.90;;;;;;5053350;28;20049;-41
2022/11/19 10:41:33;;;;;;;8.90;6.63;;;0.80;99.90;;;;;;5050680;28;20040;-42
2022/11/19 10:44:41;;;;;;;9.40;7.18;;;0.90;99.90;;;;;;5053567;28;20052;-45
2022/11/19 10:47:17;;;;;;;7.75;6.60;;;0.90;99.90;;;;;;5054106;28;20306;-44
2022/11/19 10:49:44;;;;;;;7.47;5.80;;;1.00;99.90;;;;;;5053638;28;20087;-40
2022/11/19 10:52:32;;;;;;;8.00;6.30;;;1.00;99.90;;;;;;5054070;28;20052;-41
2022/11/19 10:55:23;;;;;;;9.32;7.15;;;1.10;99.90;;;;;;5053348;28;20076;-41
2022/11/19 10:58:03;;;;;;;7.65;5.88;;;1.10;99.90;;;;;;5056224;28;20126;-44
2022/11/19 11:00:28;;;;;;;7.93;6.50;;;1.10;99.90;;;;;;5053545;28;20382;-44
2022/11/19 11:03:03;;;;;;;9.48;6.35;;;1.10;99.90;;;;;;5053951;28;20044;-42
2022/11/19 11:05:29;;;;;;;7.07;6.32;;;1.10;99.90;;;;;;5053530;28;20056;-42
2022/11/19 11:08:02;;;;;;;10.25;6.50;;;1.20;99.90;;;;;;5053665;28;20087;-44
2022/11/19 11:10:33;;;;;;;8.57;6.63;;;1.20;99.90;;;;;;5054480;28;20174;-43
2022/11/19 11:16:23;;;;;;;8.13;6.25;;;1.30;99.90;;;;;;5070683;28;20063;-43
2022/11/19 11:18:51;;;;;;;7.10;6.10;;;1.30;99.90;;;;;;5053075;28;20045;-41
2022/11/19 11:21:38;;;;;;;8.18;6.22;;;1.30;99.90;;;;;;5041857;28;20061;-46
2022/11/19 11:24:05;;;;;;;8.27;6.22;;;1.40;99.90;;;;;;5052202;28;20054;-42
2022/11/19 11:26:33;;;;;;;11.88;6.95;;;1.40;99.90;;;;;;5054165;28;20118;-44
2022/11/19 11:29:02;;;;;;;8.75;6.75;;;1.40;99.90;;;;;;5053551;28;20488;-42
2022/11/19 11:31:37;;;;;;;8.15;6.70;;;1.40;99.90;;;;;;5054491;28;20048;-45
2022/11/19 11:34:04;;;;;;;8.23;6.05;;;1.50;99.90;;;;;;5037318;28;20056;-40
2022/11/19 11:36:32;;;;;;;9.65;6.15;;;1.50;99.90;;;;;;5038363;28;20490;-45
2022/11/19 11:39:00;;;;;;;8.48;6.68;;;1.50;99.90;;;;;;5054914;28;20135;-41
2022/11/19 11:41:55;;;;;;;8.43;6.22;;;1.60;99.90;;;;;;5070876;28;20082;-42
2022/11/19 11:44:23;;;;;;;9.38;6.97;;;1.60;99.90;;;;;;5014119;28;20084;-43
2022/11/19 11:47:03;;;;;;;7.78;5.82;;;1.60;99.90;;;;;;5002573;28;20647;-44
2022/11/19 11:49:30;;;;;;;6.55;5.63;;;1.60;99.90;;;;;;4994672;28;20492;-47
2022/11/19 11:52:08;;;;;;;7.28;5.43;;;1.60;99.90;;;;;;4998519;28;20053;-41
2022/11/19 11:54:35;;;;;;;7.53;6.35;;;1.70;99.90;;;;;;5014330;28;20089;-41
2022/11/19 11:57:13;;;;;;;7.43;6.07;;;1.70;99.90;;;;;;5013977;28;20118;-40
2022/11/19 11:59:39;;;;;;;10.27;6.70;;;1.70;99.90;;;;;;5013091;28;20188;-43
2022/11/19 12:02:06;;;;;;;8.95;6.57;;;1.70;99.90;;;;;;4997595;28;20057;-42
2022/11/19 12:04:33;;;;;;;6.43;5.03;;;1.80;99.90;;;;;;5013752;28;20064;-43
2022/11/19 12:07:20;;;;;;;6.18;4.95;;;1.90;99.90;;;;;;5013902;28;20049;-45
2022/11/19 12:10:39;;;;;;;9.57;6.10;;;1.90;99.90;;;;;;4997278;28;20096;-40
2022/11/19 12:13:26;;;;;;;8.35;5.50;;;2.00;99.90;;;;;;4945524;28;20046;-41
2022/11/19 12:16:20;;;;;;;9.85;6.72;;;2.00;99.90;;;;;;4958394;28;20061;-45
2022/11/19 12:19:15;;;;;;;8.00;5.68;;;2.00;99.90;;;;;;4973900;28;20059;-40
2022/11/19 12:22:17;;;;;;;7.20;5.55;;;2.00;99.90;;;;;;5012199;28;20049;-40
2022/11/19 12:25:06;;;;;;;6.97;5.45;;;2.00;99.90;;;;;;5012757;28;20076;-42
2022/11/19 12:27:50;;;;;;;7.38;5.63;;;2.10;99.90;;;;;;5013068;28;20148;-42
2022/11/19 12:30:19;;;;;;;9.40;6.25;;;2.10;99.90;;;;;;4997813;28;20151;-41
2022/11/19 12:33:04;;;;;;;6.15;5.05;;;2.10;99.90;;;;;;5013509;28;20041;-42
2022/11/19 12:35:38;;;;;;;7.15;5.32;;;2.10;99.90;;;;;;5012235;28;20382;-43
2022/11/19 12:38:41;;;;;;;6.40;4.88;;;2.20;99.90;;;;;;4996498;28;20041;-42
2022/11/19 12:41:43;;;;;;;7.00;4.82;;;2.20;99.90;;;;;;4996080;28;20492;-44
2022/11/19 12:44:23;;;;;;;7.57;5.88;;;2.20;99.90;;;;;;4995652;28;20388;-42
2022/11/19 12:47:22;;;;;;;7.60;5.57;;;2.20;99.90;;;;;;5024219;28;20056;-41
2022/11/19 12:50:10;;;;;;;6.22;5.13;;;2.30;99.90;;;;;;5052612;28;20044;-45
2022/11/19 12:53:13;;;;;;;5.38;4.50;;;2.30;99.90;;;;;;5042943;28;20054;-44
2022/11/19 12:55:54;;;;;;;6.03;5.05;;;2.30;99.90;;;;;;5053291;28;20159;-41
2022/11/19 12:58:45;;;;;;;6.68;5.45;;;2.30;99.90;;;;;;5055225;28;20087;-42
2022/11/19 13:01:18;;;;;;;6.47;4.60;;;2.40;99.90;;;;;;5056100;28;20037;-44
2022/11/19 13:03:57;;;;;;;6.10;5.07;;;2.40;99.90;;;;;;5054122;28;20049;-46
2022/11/19 13:06:34;;;;;;;6.25;4.50;;;2.40;99.90;;;;;;5054167;28;20041;-43
2022/11/19 13:09:11;;;;;;;7.93;4.93;;;2.40;99.90;;;;;;5054590;28;20053;-41
2022/11/19 13:11:53;;;;;;;6.97;5.45;;;2.40;99.90;;;;;;5055076;28;20394;-44
2022/11/19 13:14:38;;;;;;;9.52;5.05;;;2.40;99.90;;;;;;5055539;28;20041;-42
2022/11/19 13:17:08;;;;;;;6.15;5.00;;;2.30;99.90;;;;;;5044340;28;20041;-42
2022/11/19 13:19:37;;;;;;;6.10;4.93;;;2.30;99.90;;;;;;5054275;28;20083;-46
2022/11/19 13:22:12;;;;;;;6.43;5.07;;;2.30;99.90;;;;;;5052067;28;20044;-43
2022/11/19 13:24:45;;;;;;;5.72;4.57;;;2.30;99.90;;;;;;5054986;28;20474;-42
2022/11/19 13:27:17;;;;;;;7.18;4.70;;;2.30;99.90;;;;;;5055218;28;20599;-41
2022/11/19 13:29:51;;;;;;;5.93;4.70;;;2.30;99.90;;;;;;5055331;28;20464;-41
2022/11/19 13:32:25;;;;;;;6.13;5.15;;;2.30;99.90;;;;;;5055133;28;20041;-41
2022/11/19 13:35:19;;;;;;;6.15;5.10;;;2.30;99.90;;;;;;5054687;28;20044;-42
2022/11/19 13:37:50;;;;;;;;;;;2.30;99.90;;;;;;5052657;28;20036;-41
2022/11/19 13:40:29;;;;;;;5.88;4.32;;;2.30;99.90;;;;;;5053338;28;19928;-43
2022/11/19 13:45:46;;;;;;;6.30;4.57;;;2.30;99.90;;;;;;5052617;28;20041;-43